Strona główna
METAR-TAF:

METAR-TAF

Lotnisko :

Port lotniczy Mar del Plata

Mar del Plata, Argentyna

Szerokość geograficzna: 37-56S, Długość geograficzna: 057-35W, wysokość: 18 m

Aktualna obserwacja pogody

Raport powstał 42 minut temu, godzina 03:00 UTC
Wiatr 6 kt od zachód
Temperatura 12°C
Wilgotność 58%
Ciśnienie 1015 hPa
Widzialność 10 km lub więcej
Brak chmur poniżej 1500 m i brak chmur cumulonimbus

METAR: SAZM 240300Z 27006KT CAVOK 12/04 Q1015

czas: 00:42 (03:42 UTC)

Prognoza

Raport powstał 4 godziny i 42 minut temu, godzina 23:00 UTC
Prognoza ważna od 24 godzina 00 UTC do 24 godzina 24 UTC
Wiatr 5 kt od zachodnio-południowy zachód
Widzialność 10 km lub więcej
Rozproszone chmury na wysokości 2500 ft
Przerywane chmury na wysokości 6000 ft
Stopniowe zmiany
od 24 godzina 12 UTC do 24 godzina 15 UTC
Wiatr 10 kt od południe
Przerywane chmury na wysokości 2000 ft
Przerywane chmury na wysokości 6000 ft

TAF: SAZM 232300Z 2400/2424 25005KT 9999 SCT025 BKN060 TX18/2418Z TN08/2410Z BECMG 2412/2415 18010KT BKN020 BKN060

Obserwacja i prognoza pogody dla ponad 4000 lotnisk (raport METAR i TAF).

Dostępne stacje oznaczono żółtymi i czerwonymi punktami na mapie.

Najedź kursorem aby zobaczyć nazwę stacji.

Kliknij aby zobaczyć obserwacje i prognozy pogody.

Aby zmienić mapę: kliknij na zielony przycisk z czarnym krzyżykiem, aby powiększyć; na zielony przycisk z myślnikiem, aby pomniejszyć; na zielone strzałki, aby przejść do map sąsiednich.


METAR-TAF: